Time;durP1;ratioP1;P1;durP2;ratioP2;P2;SDS_P1;SDS_P2;PMS_P1;PMS_P2;Temp;Humidity;BMP_temperature;BMP_pressure;BME280_temperature;BME280_humidity;BME280_pressure;Samples;Min_cycle;Max_cycle;Signal;HPM_P1;HPM_P2
2020/05/15 00:03:22;;;;;;;26.3;23.45;;;;;;;8.63;100;94674.17;;;;
2020/05/15 00:04:35;;;;;;;26.3;23.45;;;;;;;8.63;100;94674.17;;;;
2020/05/15 00:05:57;;;;;;;28.2;24.2;;;;;;;8.63;100;94656.27;;;;
2020/05/15 00:12:23;;;;;;;28.2;24.2;;;;;;;8.63;100;94656.27;;;;
2020/05/15 00:23:47;;;;;;;29.45;25.15;;;;;;;8.67;100;94650.7;;;;
2020/05/15 00:25:04;;;;;;;29.45;25.15;;;;;;;8.67;100;94650.7;;;;
2020/05/15 00:26:06;;;;;;;31.5;26.85;;;;;;;8.63;100;94634.74;;;;
2020/05/15 00:27:11;;;;;;;31.5;26.85;;;;;;;8.63;100;94634.74;;;;
2020/05/15 00:28:12;;;;;;;31.5;26.85;;;;;;;8.63;100;94634.74;;;;
2020/05/15 00:29:13;;;;;;;31.5;26.85;;;;;;;8.63;100;94634.74;;;;
2020/05/15 00:30:14;;;;;;;31.5;26.85;;;;;;;8.63;100;94634.74;;;;
2020/05/15 00:31:15;;;;;;;31.5;26.85;;;;;;;8.63;100;94634.74;;;;
2020/05/15 00:32:16;;;;;;;31.5;26.85;;;;;;;8.63;100;94634.74;;;;
2020/05/15 00:33:17;;;;;;;31.5;26.85;;;;;;;8.63;100;94634.74;;;;
2020/05/15 00:34:18;;;;;;;31.5;26.85;;;;;;;8.63;100;94634.74;;;;
2020/05/15 00:35:19;;;;;;;31.5;26.85;;;;;;;8.63;100;94634.74;;;;
2020/05/15 00:36:20;;;;;;;31.5;26.85;;;;;;;8.63;100;94634.74;;;;
2020/05/15 00:37:21;;;;;;;32.6;26.4;;;;;;;8.66;100;94637.77;;;;
2020/05/15 00:38:21;;;;;;;32.6;26.4;;;;;;;8.66;100;94637.77;;;;
2020/05/15 00:39:23;;;;;;;32.6;26.4;;;;;;;8.66;100;94637.77;;;;
2020/05/15 00:40:24;;;;;;;32.6;26.4;;;;;;;8.66;100;94637.77;;;;
2020/05/15 00:41:26;;;;;;;32.6;26.4;;;;;;;8.66;100;94637.77;;;;
2020/05/15 00:42:26;;;;;;;32.6;26.4;;;;;;;8.66;100;94637.77;;;;
2020/05/15 00:43:27;;;;;;;32.6;26.4;;;;;;;8.66;100;94637.77;;;;
2020/05/15 00:44:29;;;;;;;32.6;26.4;;;;;;;8.66;100;94637.77;;;;
2020/05/15 00:45:30;;;;;;;32.6;26.4;;;;;;;8.66;100;94637.77;;;;
2020/05/15 00:46:30;;;;;;;32.6;26.4;;;;;;;8.66;100;94637.77;;;;
2020/05/15 00:47:32;;;;;;;35.15;27.35;;;;;;;8.63;100;94634.74;;;;
2020/05/15 00:48:32;;;;;;;35.15;27.35;;;;;;;8.63;100;94634.74;;;;
2020/05/15 00:49:33;;;;;;;35.15;27.35;;;;;;;8.63;100;94634.74;;;;
2020/05/15 00:50:33;;;;;;;35.15;27.35;;;;;;;8.63;100;94634.74;;;;
2020/05/15 00:57:12;;;;;;;35.15;27.35;;;;;;;8.63;100;94634.74;;;;
2020/05/15 00:58:13;;;;;;;35.15;27.35;;;;;;;8.63;100;94634.74;;;;
2020/05/15 00:59:13;;;;;;;35.15;27.35;;;;;;;8.63;100;94634.74;;;;
2020/05/15 01:00:14;;;;;;;35.15;27.35;;;;;;;8.63;100;94634.74;;;;
2020/05/15 01:01:15;;;;;;;35.15;27.35;;;;;;;8.63;100;94634.74;;;;
2020/05/15 01:02:20;;;;;;;35.15;27.35;;;;;;;8.63;100;94634.74;;;;
2020/05/15 01:03:20;;;;;;;35.15;27.35;;;;;;;8.63;100;94634.74;;;;
2020/05/15 01:04:26;;;;;;;35.15;27.35;;;;;;;8.63;100;94634.74;;;;
2020/05/15 01:05:26;;;;;;;35.15;27.35;;;;;;;8.63;100;94634.74;;;;
2020/05/15 01:06:27;;;;;;;35.15;27.35;;;;;;;8.63;100;94634.74;;;;
2020/05/15 01:07:27;;;;;;;35.15;27.35;;;;;;;8.63;100;94634.74;;;;
2020/05/15 01:08:28;;;;;;;35.15;27.35;;;;;;;8.63;100;94634.74;;;;
2020/05/15 01:09:28;;;;;;;29.45;25.8;;;;;;;8.7;100;94634.89;;;;
2020/05/15 01:10:34;;;;;;;29.45;25.8;;;;;;;8.7;100;94634.89;;;;
2020/05/15 01:11:34;;;;;;;29.45;25.8;;;;;;;8.7;100;94634.89;;;;
2020/05/15 01:12:35;;;;;;;29.45;25.8;;;;;;;8.7;100;94634.89;;;;
2020/05/15 01:13:37;;;;;;;29.45;25.8;;;;;;;8.7;100;94634.89;;;;
2020/05/15 01:14:41;;;;;;;29.45;25.8;;;;;;;8.7;100;94634.89;;;;
2020/05/15 01:15:42;;;;;;;29.45;25.8;;;;;;;8.7;100;94634.89;;;;
2020/05/15 01:16:47;;;;;;;29.45;25.8;;;;;;;8.7;100;94634.89;;;;
2020/05/15 01:18:05;;;;;;;29.45;25.8;;;;;;;8.7;100;94634.89;;;;
2020/05/15 01:19:14;;;;;;;29.45;25.8;;;;;;;8.7;100;94634.89;;;;
2020/05/15 01:20:14;;;;;;;30.3;26.8;;;;;;;8.71;100;94639.62;;;;
2020/05/15 01:21:16;;;;;;;30.3;26.8;;;;;;;8.71;100;94639.62;;;;
2020/05/15 01:22:23;;;;;;;30.3;26.8;;;;;;;8.71;100;94639.62;;;;
2020/05/15 01:23:24;;;;;;;30.3;26.8;;;;;;;8.71;100;94639.62;;;;
2020/05/15 01:24:31;;;;;;;30.3;26.8;;;;;;;8.71;100;94639.62;;;;
2020/05/15 01:25:33;;;;;;;30.3;26.8;;;;;;;8.71;100;94639.62;;;;
2020/05/15 01:26:33;;;;;;;30.3;26.8;;;;;;;8.71;100;94639.62;;;;
2020/05/15 01:27:35;;;;;;;30.3;26.8;;;;;;;8.71;100;94639.62;;;;
2020/05/15 01:28:40;;;;;;;30.3;26.8;;;;;;;8.71;100;94639.62;;;;
2020/05/15 01:29:42;;;;;;;30.3;26.8;;;;;;;8.71;100;94639.62;;;;
2020/05/15 01:30:47;;;;;;;30.3;26.8;;;;;;;8.71;100;94639.62;;;;
2020/05/15 01:31:48;;;;;;;30.3;26.8;;;;;;;8.71;100;94639.62;;;;
2020/05/15 01:32:48;;;;;;;30.3;26.8;;;;;;;8.71;100;94639.62;;;;
2020/05/15 01:33:48;;;;;;;30.3;26.8;;;;;;;8.71;100;94639.62;;;;
2020/05/15 01:34:49;;;;;;;30.3;26.8;;;;;;;8.71;100;94639.62;;;;
2020/05/15 01:35:51;;;;;;;30.3;26.8;;;;;;;8.71;100;94639.62;;;;
2020/05/15 01:36:52;;;;;;;30.3;26.8;;;;;;;8.71;100;94639.62;;;;
2020/05/15 01:37:52;;;;;;;30.3;26.8;;;;;;;8.71;100;94639.62;;;;
2020/05/15 01:38:52;;;;;;;30.3;26.8;;;;;;;8.71;100;94639.62;;;;
2020/05/15 01:39:55;;;;;;;30.3;26.8;;;;;;;8.71;100;94639.62;;;;
2020/05/15 01:40:56;;;;;;;29.75;26.5;;;;;;;8.78;100;94620.24;;;;
2020/05/15 01:42:02;;;;;;;29.75;26.5;;;;;;;8.78;100;94620.24;;;;
2020/05/15 01:43:04;;;;;;;29.75;26.5;;;;;;;8.78;100;94620.24;;;;
2020/05/15 01:44:08;;;;;;;29.75;26.5;;;;;;;8.78;100;94620.24;;;;
2020/05/15 01:45:10;;;;;;;29.75;26.5;;;;;;;8.78;100;94620.24;;;;
2020/05/15 01:46:11;;;;;;;29.75;26.5;;;;;;;8.78;100;94620.24;;;;
2020/05/15 01:47:11;;;;;;;29.75;26.5;;;;;;;8.78;100;94620.24;;;;
2020/05/15 01:48:12;;;;;;;29.75;26.5;;;;;;;8.78;100;94620.24;;;;
2020/05/15 01:49:15;;;;;;;29.75;26.5;;;;;;;8.78;100;94620.24;;;;
2020/05/15 01:50:15;;;;;;;29.75;26.5;;;;;;;8.78;100;94620.24;;;;
2020/05/15 01:51:16;;;;;;;29.75;26.5;;;;;;;8.78;100;94620.24;;;;
2020/05/15 01:52:16;;;;;;;32.19999;27.3;;;;;;;8.69;100;94619.78;;;;
2020/05/15 01:53:17;;;;;;;32.19999;27.3;;;;;;;8.69;100;94619.78;;;;
2020/05/15 01:54:17;;;;;;;32.19999;27.3;;;;;;;8.69;100;94619.78;;;;
2020/05/15 01:55:18;;;;;;;32.19999;27.3;;;;;;;8.69;100;94619.78;;;;
2020/05/15 01:56:18;;;;;;;32.19999;27.3;;;;;;;8.69;100;94619.78;;;;
2020/05/15 01:57:19;;;;;;;32.19999;27.3;;;;;;;8.69;100;94619.78;;;;
2020/05/15 01:58:20;;;;;;;32.19999;27.3;;;;;;;8.69;100;94619.78;;;;
2020/05/15 01:59:22;;;;;;;32.19999;27.3;;;;;;;8.69;100;94619.78;;;;
2020/05/15 02:00:23;;;;;;;32.19999;27.3;;;;;;;8.69;100;94619.78;;;;
2020/05/15 02:01:24;;;;;;;32.19999;27.3;;;;;;;8.69;100;94619.78;;;;
2020/05/15 02:02:24;;;;;;;29.95;26.45;;;;;;;8.71;100;94619.54;;;;
2020/05/15 02:03:24;;;;;;;29.95;26.45;;;;;;;8.71;100;94619.54;;;;
2020/05/15 02:04:25;;;;;;;29.95;26.45;;;;;;;8.71;100;94619.54;;;;
2020/05/15 02:05:25;;;;;;;29.95;26.45;;;;;;;8.71;100;94619.54;;;;
2020/05/15 02:06:28;;;;;;;29.95;26.45;;;;;;;8.71;100;94619.54;;;;
2020/05/15 02:07:35;;;;;;;29.95;26.45;;;;;;;8.71;100;94619.54;;;;
2020/05/15 02:08:35;;;;;;;29.95;26.45;;;;;;;8.71;100;94619.54;;;;
2020/05/15 02:09:39;;;;;;;29.95;26.45;;;;;;;8.71;100;94619.54;;;;
2020/05/15 02:10:52;;;;;;;29.95;26.45;;;;;;;8.71;100;94619.54;;;;
2020/05/15 02:11:58;;;;;;;29.95;26.45;;;;;;;8.71;100;94619.54;;;;
2020/05/15 02:12:59;;;;;;;31.5;27.7;;;;;;;8.66;100;94596.47;;;;
2020/05/15 02:14:03;;;;;;;31.5;27.7;;;;;;;8.66;100;94596.47;;;;
2020/05/15 02:15:03;;;;;;;31.5;27.7;;;;;;;8.66;100;94596.47;;;;
2020/05/15 02:16:04;;;;;;;31.5;27.7;;;;;;;8.66;100;94596.47;;;;
2020/05/15 02:17:04;;;;;;;31.5;27.7;;;;;;;8.66;100;94596.47;;;;
2020/05/15 02:18:05;;;;;;;31.5;27.7;;;;;;;8.66;100;94596.47;;;;
2020/05/15 02:19:06;;;;;;;31.5;27.7;;;;;;;8.66;100;94596.47;;;;
2020/05/15 02:20:09;;;;;;;31.5;27.7;;;;;;;8.66;100;94596.47;;;;
2020/05/15 02:21:14;;;;;;;31.5;27.7;;;;;;;8.66;100;94596.47;;;;
2020/05/15 02:22:15;;;;;;;31.5;27.7;;;;;;;8.66;100;94596.47;;;;
2020/05/15 02:23:15;;;;;;;31.5;27.7;;;;;;;8.66;100;94596.47;;;;
2020/05/15 02:24:16;;;;;;;30.45;27.15;;;;;;;8.69;100;94594.78;;;;
2020/05/15 02:25:16;;;;;;;30.45;27.15;;;;;;;8.69;100;94594.78;;;;
2020/05/15 02:26:18;;;;;;;30.45;27.15;;;;;;;8.69;100;94594.78;;;;
2020/05/15 02:27:47;;;;;;;30.45;27.15;;;;;;;8.69;100;94594.78;;;;
2020/05/15 02:28:47;;;;;;;30.45;27.15;;;;;;;8.69;100;94594.78;;;;
2020/05/15 02:29:47;;;;;;;30.45;27.15;;;;;;;8.69;100;94594.78;;;;
2020/05/15 02:30:48;;;;;;;30.45;27.15;;;;;;;8.69;100;94594.78;;;;
2020/05/15 02:31:48;;;;;;;30.45;27.15;;;;;;;8.69;100;94594.78;;;;
2020/05/15 02:32:49;;;;;;;30.45;27.15;;;;;;;8.69;100;94594.78;;;;
2020/05/15 02:33:49;;;;;;;30.45;27.15;;;;;;;8.69;100;94594.78;;;;
2020/05/15 02:34:50;;;;;;;34.65;30.15;;;;;;;8.64;100;94608.51;;;;
2020/05/15 02:35:50;;;;;;;34.65;30.15;;;;;;;8.64;100;94608.51;;;;
2020/05/15 02:36:51;;;;;;;34.65;30.15;;;;;;;8.64;100;94608.51;;;;
2020/05/15 02:37:51;;;;;;;34.65;30.15;;;;;;;8.64;100;94608.51;;;;
2020/05/15 02:38:52;;;;;;;34.65;30.15;;;;;;;8.64;100;94608.51;;;;
2020/05/15 02:39:54;;;;;;;34.65;30.15;;;;;;;8.64;100;94608.51;;;;
2020/05/15 02:40:54;;;;;;;34.65;30.15;;;;;;;8.64;100;94608.51;;;;
2020/05/15 02:41:55;;;;;;;34.65;30.15;;;;;;;8.64;100;94608.51;;;;
2020/05/15 02:42:55;;;;;;;34.65;30.15;;;;;;;8.64;100;94608.51;;;;
2020/05/15 02:43:56;;;;;;;34.65;30.15;;;;;;;8.64;100;94608.51;;;;
2020/05/15 02:44:56;;;;;;;38.7;29.4;;;;;;;8.67;100;94613.03;;;;
2020/05/15 02:45:57;;;;;;;38.7;29.4;;;;;;;8.67;100;94613.03;;;;
2020/05/15 02:46:57;;;;;;;38.7;29.4;;;;;;;8.67;100;94613.03;;;;
2020/05/15 02:47:59;;;;;;;38.7;29.4;;;;;;;8.67;100;94613.03;;;;
2020/05/15 02:49:00;;;;;;;38.7;29.4;;;;;;;8.67;100;94613.03;;;;
2020/05/15 02:50:00;;;;;;;38.7;29.4;;;;;;;8.67;100;94613.03;;;;
2020/05/15 02:51:01;;;;;;;38.7;29.4;;;;;;;8.67;100;94613.03;;;;
2020/05/15 02:52:01;;;;;;;38.7;29.4;;;;;;;8.67;100;94613.03;;;;
2020/05/15 02:53:02;;;;;;;38.7;29.4;;;;;;;8.67;100;94613.03;;;;
2020/05/15 02:54:03;;;;;;;38.7;29.4;;;;;;;8.67;100;94613.03;;;;
2020/05/15 02:55:04;;;;;;;38.7;29.4;;;;;;;8.67;100;94613.03;;;;
2020/05/15 02:56:12;;;;;;;35.7;31.2;;;;;;;8.64;100;94610.28;;;;
2020/05/15 02:57:12;;;;;;;35.7;31.2;;;;;;;8.64;100;94610.28;;;;
2020/05/15 02:58:13;;;;;;;35.7;31.2;;;;;;;8.64;100;94610.28;;;;
2020/05/15 02:59:13;;;;;;;35.7;31.2;;;;;;;8.64;100;94610.28;;;;
2020/05/15 03:00:14;;;;;;;35.7;31.2;;;;;;;8.64;100;94610.28;;;;
2020/05/15 03:01:16;;;;;;;35.7;31.2;;;;;;;8.64;100;94610.28;;;;
2020/05/15 03:02:23;;;;;;;35.7;31.2;;;;;;;8.64;100;94610.28;;;;
2020/05/15 03:03:24;;;;;;;35.7;31.2;;;;;;;8.64;100;94610.28;;;;
2020/05/15 03:04:24;;;;;;;35.7;31.2;;;;;;;8.64;100;94610.28;;;;
2020/05/15 03:05:25;;;;;;;35.7;31.2;;;;;;;8.64;100;94610.28;;;;
2020/05/15 03:06:27;;;;;;;34.35;30.45;;;;;;;8.66;100;94597.81;;;;
2020/05/15 03:07:29;;;;;;;34.35;30.45;;;;;;;8.66;100;94597.81;;;;
2020/05/15 03:08:37;;;;;;;34.35;30.45;;;;;;;8.66;100;94597.81;;;;
2020/05/15 03:09:38;;;;;;;34.35;30.45;;;;;;;8.66;100;94597.81;;;;
2020/05/15 03:10:38;;;;;;;34.35;30.45;;;;;;;8.66;100;94597.81;;;;
2020/05/15 03:11:40;;;;;;;34.35;30.45;;;;;;;8.66;100;94597.81;;;;
2020/05/15 03:12:40;;;;;;;34.35;30.45;;;;;;;8.66;100;94597.81;;;;
2020/05/15 03:13:41;;;;;;;34.35;30.45;;;;;;;8.66;100;94597.81;;;;
2020/05/15 03:14:41;;;;;;;34.35;30.45;;;;;;;8.66;100;94597.81;;;;
2020/05/15 03:15:42;;;;;;;34.35;30.45;;;;;;;8.66;100;94597.81;;;;
2020/05/15 03:16:42;;;;;;;38.05;32.25;;;;;;;8.62;100;94593.55;;;;
2020/05/15 03:17:44;;;;;;;38.05;32.25;;;;;;;8.62;100;94593.55;;;;
2020/05/15 03:18:44;;;;;;;38.05;32.25;;;;;;;8.62;100;94593.55;;;;
2020/05/15 03:19:45;;;;;;;38.05;32.25;;;;;;;8.62;100;94593.55;;;;
2020/05/15 03:20:46;;;;;;;38.05;32.25;;;;;;;8.62;100;94593.55;;;;
2020/05/15 03:21:47;;;;;;;38.05;32.25;;;;;;;8.62;100;94593.55;;;;
2020/05/15 03:22:55;;;;;;;38.05;32.25;;;;;;;8.62;100;94593.55;;;;
2020/05/15 03:23:57;;;;;;;38.05;32.25;;;;;;;8.62;100;94593.55;;;;
2020/05/15 03:24:57;;;;;;;38.05;32.25;;;;;;;8.62;100;94593.55;;;;
2020/05/15 03:25:58;;;;;;;38.05;32.25;;;;;;;8.62;100;94593.55;;;;
2020/05/15 03:26:58;;;;;;;38.15001;31.35;;;;;;;8.61;100;94601.35;;;;
2020/05/15 03:27:59;;;;;;;38.15001;31.35;;;;;;;8.61;100;94601.35;;;;
2020/05/15 03:29:01;;;;;;;38.15001;31.35;;;;;;;8.61;100;94601.35;;;;
2020/05/15 03:30:02;;;;;;;38.15001;31.35;;;;;;;8.61;100;94601.35;;;;
2020/05/15 03:31:15;;;;;;;38.15001;31.35;;;;;;;8.61;100;94601.35;;;;
2020/05/15 03:32:27;;;;;;;38.15001;31.35;;;;;;;8.61;100;94601.35;;;;
2020/05/15 03:33:35;;;;;;;38.15001;31.35;;;;;;;8.61;100;94601.35;;;;
2020/05/15 03:34:37;;;;;;;38.15001;31.35;;;;;;;8.61;100;94601.35;;;;
2020/05/15 03:35:38;;;;;;;38.15001;31.35;;;;;;;8.61;100;94601.35;;;;
2020/05/15 03:36:39;;;;;;;38.15001;31.35;;;;;;;8.61;100;94601.35;;;;
2020/05/15 03:37:39;;;;;;;39.2;33;;;;;;;8.53;100;94609;;;;
2020/05/15 03:38:40;;;;;;;39.2;33;;;;;;;8.53;100;94609;;;;
2020/05/15 03:39:41;;;;;;;39.2;33;;;;;;;8.53;100;94609;;;;
2020/05/15 03:40:41;;;;;;;39.2;33;;;;;;;8.53;100;94609;;;;
2020/05/15 03:41:42;;;;;;;39.2;33;;;;;;;8.53;100;94609;;;;
2020/05/15 03:42:43;;;;;;;39.2;33;;;;;;;8.53;100;94609;;;;
2020/05/15 03:43:45;;;;;;;39.2;33;;;;;;;8.53;100;94609;;;;
2020/05/15 03:44:45;;;;;;;39.2;33;;;;;;;8.53;100;94609;;;;
2020/05/15 03:45:46;;;;;;;39.2;33;;;;;;;8.53;100;94609;;;;
2020/05/15 03:46:48;;;;;;;39.2;33;;;;;;;8.53;100;94609;;;;
2020/05/15 03:47:49;;;;;;;39.2;33;;;;;;;8.53;100;94609;;;;
2020/05/15 03:48:50;;;;;;;39.2;33.3;;;;;;;8.52;100;94620.28;;;;
2020/05/15 03:49:50;;;;;;;39.2;33.3;;;;;;;8.52;100;94620.28;;;;
2020/05/15 03:50:52;;;;;;;39.2;33.3;;;;;;;8.52;100;94620.28;;;;
2020/05/15 03:51:52;;;;;;;39.2;33.3;;;;;;;8.52;100;94620.28;;;;
2020/05/15 03:52:55;;;;;;;39.2;33.3;;;;;;;8.52;100;94620.28;;;;
2020/05/15 03:53:57;;;;;;;39.2;33.3;;;;;;;8.52;100;94620.28;;;;
2020/05/15 03:54:58;;;;;;;39.2;33.3;;;;;;;8.52;100;94620.28;;;;
2020/05/15 03:55:59;;;;;;;39.2;33.3;;;;;;;8.52;100;94620.28;;;;
2020/05/15 03:57:01;;;;;;;39.2;33.3;;;;;;;8.52;100;94620.28;;;;
2020/05/15 03:58:02;;;;;;;39.2;33.3;;;;;;;8.52;100;94620.28;;;;
2020/05/15 03:59:03;;;;;;;44.5;36.4;;;;;;;8.41;100;94621.95;;;;
2020/05/15 04:00:05;;;;;;;44.5;36.4;;;;;;;8.41;100;94621.95;;;;
2020/05/15 04:01:09;;;;;;;44.5;36.4;;;;;;;8.41;100;94621.95;;;;
2020/05/15 04:02:09;;;;;;;44.5;36.4;;;;;;;8.41;100;94621.95;;;;
2020/05/15 04:03:10;;;;;;;44.5;36.4;;;;;;;8.41;100;94621.95;;;;
2020/05/15 04:04:12;;;;;;;44.5;36.4;;;;;;;8.41;100;94621.95;;;;
2020/05/15 04:05:13;;;;;;;44.5;36.4;;;;;;;8.41;100;94621.95;;;;
2020/05/15 04:06:13;;;;;;;44.5;36.4;;;;;;;8.41;100;94621.95;;;;
2020/05/15 04:07:14;;;;;;;44.5;36.4;;;;;;;8.41;100;94621.95;;;;
2020/05/15 04:08:14;;;;;;;44.5;36.4;;;;;;;8.41;100;94621.95;;;;
2020/05/15 04:09:16;;;;;;;44.5;36.4;;;;;;;8.41;100;94621.95;;;;
2020/05/15 04:10:21;;;;;;;38.5;34.09999;;;;;;;8.37;100;94627.51;;;;
2020/05/15 04:11:46;;;;;;;38.5;34.09999;;;;;;;8.37;100;94627.51;;;;
2020/05/15 04:12:46;;;;;;;38.5;34.09999;;;;;;;8.37;100;94627.51;;;;
2020/05/15 04:13:47;;;;;;;38.5;34.09999;;;;;;;8.37;100;94627.51;;;;
2020/05/15 04:14:48;;;;;;;38.5;34.09999;;;;;;;8.37;100;94627.51;;;;
2020/05/15 04:15:49;;;;;;;38.5;34.09999;;;;;;;8.37;100;94627.51;;;;
2020/05/15 04:16:51;;;;;;;38.5;34.09999;;;;;;;8.37;100;94627.51;;;;
2020/05/15 04:17:51;;;;;;;38.5;34.09999;;;;;;;8.37;100;94627.51;;;;
2020/05/15 04:18:52;;;;;;;38.5;34.09999;;;;;;;8.37;100;94627.51;;;;
2020/05/15 04:19:52;;;;;;;38.5;34.09999;;;;;;;8.37;100;94627.51;;;;
2020/05/15 04:20:53;;;;;;;43.9;35.75;;;;;;;8.24;100;94618.87;;;;
2020/05/15 04:21:54;;;;;;;43.9;35.75;;;;;;;8.24;100;94618.87;;;;
2020/05/15 04:22:54;;;;;;;43.9;35.75;;;;;;;8.24;100;94618.87;;;;
2020/05/15 04:23:55;;;;;;;43.9;35.75;;;;;;;8.24;100;94618.87;;;;
2020/05/15 04:24:55;;;;;;;43.9;35.75;;;;;;;8.24;100;94618.87;;;;
2020/05/15 04:25:56;;;;;;;43.9;35.75;;;;;;;8.24;100;94618.87;;;;
2020/05/15 04:26:57;;;;;;;43.9;35.75;;;;;;;8.24;100;94618.87;;;;
2020/05/15 04:27:57;;;;;;;43.9;35.75;;;;;;;8.24;100;94618.87;;;;
2020/05/15 04:28:58;;;;;;;43.9;35.75;;;;;;;8.24;100;94618.87;;;;
2020/05/15 04:29:58;;;;;;;43.9;35.75;;;;;;;8.24;100;94618.87;;;;
2020/05/15 04:30:58;;;;;;;40.55;33.95;;;;;;;8.15;100;94626.47;;;;
2020/05/15 04:31:59;;;;;;;40.55;33.95;;;;;;;8.15;100;94626.47;;;;
2020/05/15 04:32:59;;;;;;;40.55;33.95;;;;;;;8.15;100;94626.47;;;;
2020/05/15 04:34:00;;;;;;;40.55;33.95;;;;;;;8.15;100;94626.47;;;;
2020/05/15 04:35:00;;;;;;;40.55;33.95;;;;;;;8.15;100;94626.47;;;;
2020/05/15 04:36:01;;;;;;;40.55;33.95;;;;;;;8.15;100;94626.47;;;;
2020/05/15 04:37:02;;;;;;;40.55;33.95;;;;;;;8.15;100;94626.47;;;;
2020/05/15 04:38:02;;;;;;;40.55;33.95;;;;;;;8.15;100;94626.47;;;;
2020/05/15 04:39:03;;;;;;;40.55;33.95;;;;;;;8.15;100;94626.47;;;;
2020/05/15 04:40:03;;;;;;;40.55;33.95;;;;;;;8.15;100;94626.47;;;;
2020/05/15 04:41:04;;;;;;;40.55;33.95;;;;;;;8.15;100;94626.47;;;;
2020/05/15 04:42:04;;;;;;;40.75;34.8;;;;;;;8.03;100;94650.81;;;;
2020/05/15 04:43:05;;;;;;;40.75;34.8;;;;;;;8.03;100;94650.81;;;;
2020/05/15 04:44:05;;;;;;;40.75;34.8;;;;;;;8.03;100;94650.81;;;;
2020/05/15 04:45:06;;;;;;;40.75;34.8;;;;;;;8.03;100;94650.81;;;;
2020/05/15 04:46:07;;;;;;;40.75;34.8;;;;;;;8.03;100;94650.81;;;;
2020/05/15 04:47:07;;;;;;;40.75;34.8;;;;;;;8.03;100;94650.81;;;;
2020/05/15 04:48:08;;;;;;;40.75;34.8;;;;;;;8.03;100;94650.81;;;;
2020/05/15 04:49:08;;;;;;;40.75;34.8;;;;;;;8.03;100;94650.81;;;;
2020/05/15 04:50:08;;;;;;;40.75;34.8;;;;;;;8.03;100;94650.81;;;;
2020/05/15 04:51:09;;;;;;;40.75;34.8;;;;;;;8.03;100;94650.81;;;;
2020/05/15 04:52:09;;;;;;;40.4;33.64999;;;;;;;7.98;100;94663.32;;;;
2020/05/15 04:53:10;;;;;;;40.4;33.64999;;;;;;;7.98;100;94663.32;;;;
2020/05/15 04:54:11;;;;;;;40.4;33.64999;;;;;;;7.98;100;94663.32;;;;
2020/05/15 04:55:11;;;;;;;40.4;33.64999;;;;;;;7.98;100;94663.32;;;;
2020/05/15 04:56:17;;;;;;;40.4;33.64999;;;;;;;7.98;100;94663.32;;;;
2020/05/15 04:57:18;;;;;;;40.4;33.64999;;;;;;;7.98;100;94663.32;;;;
2020/05/15 04:58:19;;;;;;;40.4;33.64999;;;;;;;7.98;100;94663.32;;;;
2020/05/15 04:59:20;;;;;;;40.4;33.64999;;;;;;;7.98;100;94663.32;;;;
2020/05/15 05:00:20;;;;;;;40.4;33.64999;;;;;;;7.98;100;94663.32;;;;
2020/05/15 05:01:20;;;;;;;40.4;33.64999;;;;;;;7.98;100;94663.32;;;;
2020/05/15 05:02:21;;;;;;;39.6;33.75;;;;;;;7.84;100;94662.2;;;;
2020/05/15 05:03:21;;;;;;;39.6;33.75;;;;;;;7.84;100;94662.2;;;;
2020/05/15 05:04:22;;;;;;;39.6;33.75;;;;;;;7.84;100;94662.2;;;;
2020/05/15 05:05:22;;;;;;;39.6;33.75;;;;;;;7.84;100;94662.2;;;;
2020/05/15 05:06:23;;;;;;;39.6;33.75;;;;;;;7.84;100;94662.2;;;;
2020/05/15 05:07:24;;;;;;;39.6;33.75;;;;;;;7.84;100;94662.2;;;;
2020/05/15 05:08:24;;;;;;;39.6;33.75;;;;;;;7.84;100;94662.2;;;;
2020/05/15 05:09:24;;;;;;;39.6;33.75;;;;;;;7.84;100;94662.2;;;;
2020/05/15 05:10:25;;;;;;;39.6;33.75;;;;;;;7.84;100;94662.2;;;;
2020/05/15 05:11:26;;;;;;;39.6;33.75;;;;;;;7.84;100;94662.2;;;;
2020/05/15 05:12:26;;;;;;;39.6;33.75;;;;;;;7.84;100;94662.2;;;;
2020/05/15 05:13:27;;;;;;;40.3;32.85;;;;;;;7.85;100;94673.78;;;;
2020/05/15 05:14:28;;;;;;;40.3;32.85;;;;;;;7.85;100;94673.78;;;;
2020/05/15 05:15:28;;;;;;;40.3;32.85;;;;;;;7.85;100;94673.78;;;;
2020/05/15 05:16:29;;;;;;;40.3;32.85;;;;;;;7.85;100;94673.78;;;;
2020/05/15 05:17:29;;;;;;;40.3;32.85;;;;;;;7.85;100;94673.78;;;;
2020/05/15 05:18:30;;;;;;;40.3;32.85;;;;;;;7.85;100;94673.78;;;;
2020/05/15 05:19:30;;;;;;;40.3;32.85;;;;;;;7.85;100;94673.78;;;;
2020/05/15 05:20:31;;;;;;;40.3;32.85;;;;;;;7.85;100;94673.78;;;;
2020/05/15 05:21:31;;;;;;;40.3;32.85;;;;;;;7.85;100;94673.78;;;;
2020/05/15 05:22:32;;;;;;;40.3;32.85;;;;;;;7.85;100;94673.78;;;;
2020/05/15 05:23:33;;;;;;;40.3;32.85;;;;;;;7.85;100;94673.78;;;;
2020/05/15 05:24:33;;;;;;;41.2;33.95;;;;;;;7.77;100;94682.59;;;;
2020/05/15 05:25:33;;;;;;;41.2;33.95;;;;;;;7.77;100;94682.59;;;;
2020/05/15 05:26:34;;;;;;;41.2;33.95;;;;;;;7.77;100;94682.59;;;;
2020/05/15 05:27:34;;;;;;;41.2;33.95;;;;;;;7.77;100;94682.59;;;;
2020/05/15 05:28:35;;;;;;;41.2;33.95;;;;;;;7.77;100;94682.59;;;;
2020/05/15 05:29:35;;;;;;;41.2;33.95;;;;;;;7.77;100;94682.59;;;;
2020/05/15 05:30:36;;;;;;;41.2;33.95;;;;;;;7.77;100;94682.59;;;;
2020/05/15 05:31:36;;;;;;;41.2;33.95;;;;;;;7.77;100;94682.59;;;;
2020/05/15 05:32:37;;;;;;;41.2;33.95;;;;;;;7.77;100;94682.59;;;;
2020/05/15 05:33:37;;;;;;;41.2;33.95;;;;;;;7.77;100;94682.59;;;;
2020/05/15 05:34:38;;;;;;;34.8;29.55;;;;;;;7.82;100;94695.34;;;;
2020/05/15 05:35:38;;;;;;;34.8;29.55;;;;;;;7.82;100;94695.34;;;;
2020/05/15 05:36:39;;;;;;;34.8;29.55;;;;;;;7.82;100;94695.34;;;;
2020/05/15 05:37:40;;;;;;;34.8;29.55;;;;;;;7.82;100;94695.34;;;;
2020/05/15 05:38:40;;;;;;;34.8;29.55;;;;;;;7.82;100;94695.34;;;;
2020/05/15 05:39:41;;;;;;;34.8;29.55;;;;;;;7.82;100;94695.34;;;;
2020/05/15 05:40:41;;;;;;;34.8;29.55;;;;;;;7.82;100;94695.34;;;;
2020/05/15 05:41:42;;;;;;;34.8;29.55;;;;;;;7.82;100;94695.34;;;;
2020/05/15 05:42:42;;;;;;;34.8;29.55;;;;;;;7.82;100;94695.34;;;;
2020/05/15 05:43:43;;;;;;;34.8;29.55;;;;;;;7.82;100;94695.34;;;;
2020/05/15 05:44:43;;;;;;;34.8;29.55;;;;;;;7.82;100;94695.34;;;;
2020/05/15 05:45:44;;;;;;;29.5;25.55;;;;;;;7.73;100;94723.1;;;;
2020/05/15 05:46:45;;;;;;;29.5;25.55;;;;;;;7.73;100;94723.1;;;;
2020/05/15 05:47:45;;;;;;;29.5;25.55;;;;;;;7.73;100;94723.1;;;;
2020/05/15 05:48:46;;;;;;;29.5;25.55;;;;;;;7.73;100;94723.1;;;;
2020/05/15 05:49:46;;;;;;;29.5;25.55;;;;;;;7.73;100;94723.1;;;;
2020/05/15 05:50:47;;;;;;;29.5;25.55;;;;;;;7.73;100;94723.1;;;;
2020/05/15 05:51:48;;;;;;;29.5;25.55;;;;;;;7.73;100;94723.1;;;;
2020/05/15 05:52:48;;;;;;;29.5;25.55;;;;;;;7.73;100;94723.1;;;;
2020/05/15 05:53:49;;;;;;;29.5;25.55;;;;;;;7.73;100;94723.1;;;;
2020/05/15 05:54:49;;;;;;;29.5;25.55;;;;;;;7.73;100;94723.1;;;;
2020/05/15 05:55:50;;;;;;;28.55;24.85;;;;;;;7.64;100;94736.99;;;;
2020/05/15 05:56:50;;;;;;;28.55;24.85;;;;;;;7.64;100;94736.99;;;;
2020/05/15 05:57:51;;;;;;;28.55;24.85;;;;;;;7.64;100;94736.99;;;;
2020/05/15 05:58:51;;;;;;;28.55;24.85;;;;;;;7.64;100;94736.99;;;;
2020/05/15 05:59:52;;;;;;;28.55;24.85;;;;;;;7.64;100;94736.99;;;;
2020/05/15 06:00:52;;;;;;;28.55;24.85;;;;;;;7.64;100;94736.99;;;;
2020/05/15 06:01:53;;;;;;;28.55;24.85;;;;;;;7.64;100;94736.99;;;;
2020/05/15 06:02:55;;;;;;;28.55;24.85;;;;;;;7.64;100;94736.99;;;;
2020/05/15 06:03:56;;;;;;;28.55;24.85;;;;;;;7.64;100;94736.99;;;;
2020/05/15 06:04:57;;;;;;;28.55;24.85;;;;;;;7.64;100;94736.99;;;;
2020/05/15 06:05:58;;;;;;;28.55;24.85;;;;;;;7.64;100;94736.99;;;;
2020/05/15 06:12:09;;;;;;;32.2;27.9;;;;;;;7.62;100;94747.66;;;;
2020/05/15 06:13:10;;;;;;;32.2;27.9;;;;;;;7.62;100;94747.66;;;;
2020/05/15 06:14:10;;;;;;;32.2;27.9;;;;;;;7.62;100;94747.66;;;;
2020/05/15 06:15:11;;;;;;;32.2;27.9;;;;;;;7.62;100;94747.66;;;;
2020/05/15 06:16:11;;;;;;;32.2;27.9;;;;;;;7.62;100;94747.66;;;;
2020/05/15 06:17:13;;;;;;;33.6;28.20001;;;;;;;7.67;100;94752.73;;;;
2020/05/15 06:18:14;;;;;;;33.6;28.20001;;;;;;;7.67;100;94752.73;;;;
2020/05/15 06:19:14;;;;;;;33.6;28.20001;;;;;;;7.67;100;94752.73;;;;
2020/05/15 06:20:15;;;;;;;33.6;28.20001;;;;;;;7.67;100;94752.73;;;;
2020/05/15 06:21:15;;;;;;;33.6;28.20001;;;;;;;7.67;100;94752.73;;;;
2020/05/15 06:22:16;;;;;;;33.6;28.20001;;;;;;;7.67;100;94752.73;;;;
2020/05/15 06:23:16;;;;;;;33.6;28.20001;;;;;;;7.67;100;94752.73;;;;
2020/05/15 06:24:17;;;;;;;33.6;28.20001;;;;;;;7.67;100;94752.73;;;;
2020/05/15 06:25:17;;;;;;;33.6;28.20001;;;;;;;7.67;100;94752.73;;;;
2020/05/15 06:26:17;;;;;;;33.6;28.20001;;;;;;;7.67;100;94752.73;;;;
2020/05/15 06:27:27;;;;;;;27.85;24.8;;;;;;;7.72;100;94773.05;;;;
2020/05/15 06:31:52;;;;;;;27.85;24.8;;;;;;;7.72;100;94773.05;;;;
2020/05/15 06:32:53;;;;;;;27.85;24.8;;;;;;;7.72;100;94773.05;;;;
2020/05/15 06:34:10;;;;;;;27.85;24.8;;;;;;;7.72;100;94773.05;;;;
2020/05/15 06:35:16;;;;;;;27.85;24.8;;;;;;;7.72;100;94773.05;;;;
2020/05/15 06:41:31;;;;;;;25.55;22.9;;;;;;;7.88;100;94774.92;;;;
2020/05/15 06:42:31;;;;;;;25.55;22.9;;;;;;;7.88;100;94774.92;;;;
2020/05/15 06:43:32;;;;;;;25.55;22.9;;;;;;;7.88;100;94774.92;;;;
2020/05/15 06:44:32;;;;;;;25.55;22.9;;;;;;;7.88;100;94774.92;;;;
2020/05/15 06:45:33;;;;;;;25.55;22.9;;;;;;;7.88;100;94774.92;;;;
2020/05/15 06:46:33;;;;;;;25.55;22.9;;;;;;;7.88;100;94774.92;;;;
2020/05/15 06:47:33;;;;;;;25.55;22.9;;;;;;;7.88;100;94774.92;;;;
2020/05/15 06:48:34;;;;;;;28.95;25.6;;;;;;;8.05;100;94794.3;;;;
2020/05/15 06:49:34;;;;;;;28.95;25.6;;;;;;;8.05;100;94794.3;;;;
2020/05/15 06:50:35;;;;;;;28.95;25.6;;;;;;;8.05;100;94794.3;;;;
2020/05/15 06:51:35;;;;;;;28.95;25.6;;;;;;;8.05;100;94794.3;;;;
2020/05/15 06:52:36;;;;;;;28.95;25.6;;;;;;;8.05;100;94794.3;;;;